sensor_id;sensor_type;location;lat;lon;timestamp;temperature;humidity
37274;DHT22;23161;51.250;5.554;2022-11-25T00:01:52;10.10;99.90
37274;DHT22;23161;51.250;5.554;2022-11-25T00:04:18;10.10;99.90
37274;DHT22;23161;51.250;5.554;2022-11-25T00:06:44;10.20;99.90
37274;DHT22;23161;51.250;5.554;2022-11-25T00:09:10;10.20;99.90
37274;DHT22;23161;51.250;5.554;2022-11-25T00:11:41;10.20;99.90
37274;DHT22;23161;51.250;5.554;2022-11-25T00:14:10;10.10;99.90
37274;DHT22;23161;51.250;5.554;2022-11-25T00:16:37;10.20;99.90
37274;DHT22;23161;51.250;5.554;2022-11-25T00:19:03;10.10;99.90
37274;DHT22;23161;51.250;5.554;2022-11-25T00:21:32;10.20;99.90
37274;DHT22;23161;51.250;5.554;2022-11-25T00:24:00;10.20;99.90
37274;DHT22;23161;51.250;5.554;2022-11-25T00:26:28;10.20;99.90
37274;DHT22;23161;51.250;5.554;2022-11-25T00:28:57;10.20;99.90
37274;DHT22;23161;51.250;5.554;2022-11-25T00:31:26;10.20;99.90
37274;DHT22;23161;51.250;5.554;2022-11-25T00:33:52;10.20;99.90
37274;DHT22;23161;51.250;5.554;2022-11-25T00:38:52;10.20;99.90
37274;DHT22;23161;51.250;5.554;2022-11-25T00:41:19;10.30;99.90
37274;DHT22;23161;51.250;5.554;2022-11-25T00:44:03;10.30;99.90
37274;DHT22;23161;51.250;5.554;2022-11-25T00:46:49;10.30;99.90
37274;DHT22;23161;51.250;5.554;2022-11-25T00:49:15;10.30;99.90
37274;DHT22;23161;51.250;5.554;2022-11-25T00:51:41;10.30;99.90
37274;DHT22;23161;51.250;5.554;2022-11-25T00:54:07;10.30;99.90
37274;DHT22;23161;51.250;5.554;2022-11-25T00:56:33;10.40;99.90
37274;DHT22;23161;51.250;5.554;2022-11-25T00:58:59;10.40;99.90
37274;DHT22;23161;51.250;5.554;2022-11-25T01:01:25;10.40;99.90
37274;DHT22;23161;51.250;5.554;2022-11-25T01:03:52;10.50;99.90
37274;DHT22;23161;51.250;5.554;2022-11-25T01:06:18;10.50;99.90
37274;DHT22;23161;51.250;5.554;2022-11-25T01:08:44;10.60;99.90
37274;DHT22;23161;51.250;5.554;2022-11-25T01:11:13;10.60;99.90
37274;DHT22;23161;51.250;5.554;2022-11-25T01:13:39;10.60;99.90
37274;DHT22;23161;51.250;5.554;2022-11-25T01:16:07;10.70;99.90
37274;DHT22;23161;51.250;5.554;2022-11-25T01:18:34;10.70;99.90
37274;DHT22;23161;51.250;5.554;2022-11-25T01:21:06;10.70;99.90
37274;DHT22;23161;51.250;5.554;2022-11-25T01:23:32;10.60;99.90
37274;DHT22;23161;51.250;5.554;2022-11-25T01:26:03;10.60;99.90
37274;DHT22;23161;51.250;5.554;2022-11-25T01:28:29;10.60;99.90
37274;DHT22;23161;51.250;5.554;2022-11-25T01:31:00;10.60;99.90
37274;DHT22;23161;51.250;5.554;2022-11-25T01:33:26;10.60;99.90
37274;DHT22;23161;51.250;5.554;2022-11-25T01:35:52;10.60;99.90
37274;DHT22;23161;51.250;5.554;2022-11-25T01:38:18;10.60;99.90
37274;DHT22;23161;51.250;5.554;2022-11-25T01:40:44;10.50;99.90
37274;DHT22;23161;51.250;5.554;2022-11-25T01:43:13;10.50;99.90
37274;DHT22;23161;51.250;5.554;2022-11-25T01:45:39;10.60;99.90
37274;DHT22;23161;51.250;5.554;2022-11-25T01:48:19;10.60;99.90
37274;DHT22;23161;51.250;5.554;2022-11-25T01:50:47;10.60;99.90
37274;DHT22;23161;51.250;5.554;2022-11-25T01:53:15;10.60;99.90
37274;DHT22;23161;51.250;5.554;2022-11-25T01:55:48;10.60;99.90
37274;DHT22;23161;51.250;5.554;2022-11-25T01:58:17;10.60;99.90
37274;DHT22;23161;51.250;5.554;2022-11-25T02:00:46;10.60;99.90
37274;DHT22;23161;51.250;5.554;2022-11-25T02:03:32;10.60;99.90
37274;DHT22;23161;51.250;5.554;2022-11-25T02:06:10;10.60;99.90
37274;DHT22;23161;51.250;5.554;2022-11-25T02:08:38;10.60;99.90
37274;DHT22;23161;51.250;5.554;2022-11-25T02:11:05;10.60;99.90
37274;DHT22;23161;51.250;5.554;2022-11-25T02:13:32;10.60;99.90
37274;DHT22;23161;51.250;5.554;2022-11-25T02:15:59;10.60;99.90
37274;DHT22;23161;51.250;5.554;2022-11-25T02:18:26;10.50;99.90
37274;DHT22;23161;51.250;5.554;2022-11-25T02:20:52;10.40;99.90
37274;DHT22;23161;51.250;5.554;2022-11-25T02:23:26;10.30;99.90
37274;DHT22;23161;51.250;5.554;2022-11-25T02:25:58;10.30;99.90
37274;DHT22;23161;51.250;5.554;2022-11-25T02:28:26;10.20;99.90
37274;DHT22;23161;51.250;5.554;2022-11-25T02:30:54;10.10;99.90
37274;DHT22;23161;51.250;5.554;2022-11-25T02:33:22;10.10;99.90
37274;DHT22;23161;51.250;5.554;2022-11-25T02:35:57;10.00;99.90
37274;DHT22;23161;51.250;5.554;2022-11-25T02:43:39;9.90;99.90
37274;DHT22;23161;51.250;5.554;2022-11-25T02:46:10;9.80;99.90
37274;DHT22;23161;51.250;5.554;2022-11-25T02:48:38;9.80;99.90
37274;DHT22;23161;51.250;5.554;2022-11-25T02:51:07;9.80;99.90
37274;DHT22;23161;51.250;5.554;2022-11-25T02:53:34;9.80;99.90
37274;DHT22;23161;51.250;5.554;2022-11-25T02:56:00;9.70;99.90
37274;DHT22;23161;51.250;5.554;2022-11-25T02:58:26;9.70;99.90
37274;DHT22;23161;51.250;5.554;2022-11-25T03:00:52;9.60;99.90
37274;DHT22;23161;51.250;5.554;2022-11-25T03:03:19;9.60;99.90
37274;DHT22;23161;51.250;5.554;2022-11-25T03:05:46;9.60;99.90
37274;DHT22;23161;51.250;5.554;2022-11-25T03:08:12;9.50;99.90
37274;DHT22;23161;51.250;5.554;2022-11-25T03:10:38;9.50;99.90
37274;DHT22;23161;51.250;5.554;2022-11-25T03:13:06;9.50;99.90
37274;DHT22;23161;51.250;5.554;2022-11-25T03:15:33;9.50;99.90
37274;DHT22;23161;51.250;5.554;2022-11-25T03:18:00;9.50;99.90
37274;DHT22;23161;51.250;5.554;2022-11-25T03:20:27;9.40;99.90
37274;DHT22;23161;51.250;5.554;2022-11-25T03:22:52;9.40;99.90
37274;DHT22;23161;51.250;5.554;2022-11-25T03:25:18;9.40;99.90
37274;DHT22;23161;51.250;5.554;2022-11-25T03:27:46;9.30;99.90
37274;DHT22;23161;51.250;5.554;2022-11-25T03:30:15;9.30;99.90
37274;DHT22;23161;51.250;5.554;2022-11-25T03:32:43;9.20;99.90
37274;DHT22;23161;51.250;5.554;2022-11-25T03:35:10;9.10;99.90
37274;DHT22;23161;51.250;5.554;2022-11-25T03:37:37;9.10;99.90
37274;DHT22;23161;51.250;5.554;2022-11-25T03:40:06;9.00;99.90
37274;DHT22;23161;51.250;5.554;2022-11-25T03:42:33;9.00;99.90
37274;DHT22;23161;51.250;5.554;2022-11-25T03:44:59;8.90;99.90
37274;DHT22;23161;51.250;5.554;2022-11-25T03:47:25;8.90;99.90
37274;DHT22;23161;51.250;5.554;2022-11-25T03:49:51;8.90;99.90
37274;DHT22;23161;51.250;5.554;2022-11-25T03:52:18;8.90;99.90
37274;DHT22;23161;51.250;5.554;2022-11-25T03:54:44;8.90;99.90
37274;DHT22;23161;51.250;5.554;2022-11-25T03:57:15;8.90;99.90
37274;DHT22;23161;51.250;5.554;2022-11-25T03:59:41;8.90;99.90
37274;DHT22;23161;51.250;5.554;2022-11-25T04:02:07;8.90;99.90
37274;DHT22;23161;51.250;5.554;2022-11-25T04:04:34;8.90;99.90
37274;DHT22;23161;51.250;5.554;2022-11-25T04:07:00;8.80;99.90
37274;DHT22;23161;51.250;5.554;2022-11-25T04:09:26;8.90;99.90
37274;DHT22;23161;51.250;5.554;2022-11-25T04:11:53;8.80;99.90
37274;DHT22;23161;51.250;5.554;2022-11-25T04:14:50;8.90;99.90
37274;DHT22;23161;51.250;5.554;2022-11-25T04:17:17;8.90;99.90
37274;DHT22;23161;51.250;5.554;2022-11-25T04:19:44;8.90;99.90
37274;DHT22;23161;51.250;5.554;2022-11-25T04:22:11;8.90;99.90
37274;DHT22;23161;51.250;5.554;2022-11-25T04:24:39;8.90;99.90
37274;DHT22;23161;51.250;5.554;2022-11-25T04:27:05;8.80;99.90
37274;DHT22;23161;51.250;5.554;2022-11-25T04:29:31;8.80;99.90
37274;DHT22;23161;51.250;5.554;2022-11-25T04:32:01;8.80;99.90
37274;DHT22;23161;51.250;5.554;2022-11-25T04:34:27;8.80;99.90
37274;DHT22;23161;51.250;5.554;2022-11-25T04:36:53;8.80;99.90
37274;DHT22;23161;51.250;5.554;2022-11-25T04:39:19;8.90;99.90
37274;DHT22;23161;51.250;5.554;2022-11-25T04:41:49;8.80;99.90
37274;DHT22;23161;51.250;5.554;2022-11-25T04:44:35;8.80;99.90
37274;DHT22;23161;51.250;5.554;2022-11-25T04:47:01;8.80;99.90
37274;DHT22;23161;51.250;5.554;2022-11-25T04:49:27;8.70;99.90
37274;DHT22;23161;51.250;5.554;2022-11-25T04:51:53;8.60;99.90
37274;DHT22;23161;51.250;5.554;2022-11-25T04:54:20;8.60;99.90
37274;DHT22;23161;51.250;5.554;2022-11-25T04:56:46;8.60;99.90
37274;DHT22;23161;51.250;5.554;2022-11-25T04:59:12;8.50;99.90
37274;DHT22;23161;51.250;5.554;2022-11-25T05:01:57;8.40;99.90
37274;DHT22;23161;51.250;5.554;2022-11-25T05:04:31;8.30;99.90
37274;DHT22;23161;51.250;5.554;2022-11-25T05:06:57;8.20;99.90
37274;DHT22;23161;51.250;5.554;2022-11-25T05:09:24;8.20;99.90
37274;DHT22;23161;51.250;5.554;2022-11-25T05:12:02;8.10;99.90
37274;DHT22;23161;51.250;5.554;2022-11-25T05:14:27;8.00;99.90
37274;DHT22;23161;51.250;5.554;2022-11-25T05:16:53;8.00;99.90
37274;DHT22;23161;51.250;5.554;2022-11-25T05:19:19;7.90;99.90
37274;DHT22;23161;51.250;5.554;2022-11-25T05:21:46;7.90;99.90
37274;DHT22;23161;51.250;5.554;2022-11-25T05:24:12;7.90;99.90
37274;DHT22;23161;51.250;5.554;2022-11-25T05:26:38;7.90;99.90
37274;DHT22;23161;51.250;5.554;2022-11-25T05:29:04;8.00;99.90
37274;DHT22;23161;51.250;5.554;2022-11-25T05:31:32;8.00;99.90
37274;DHT22;23161;51.250;5.554;2022-11-25T05:34:01;7.90;99.90
37274;DHT22;23161;51.250;5.554;2022-11-25T05:36:28;8.00;99.90
37274;DHT22;23161;51.250;5.554;2022-11-25T05:38:58;7.90;99.90
37274;DHT22;23161;51.250;5.554;2022-11-25T05:41:36;7.80;99.90
37274;DHT22;23161;51.250;5.554;2022-11-25T05:44:02;7.70;99.90
37274;DHT22;23161;51.250;5.554;2022-11-25T05:46:30;7.70;99.90
37274;DHT22;23161;51.250;5.554;2022-11-25T05:48:57;7.70;99.90
37274;DHT22;23161;51.250;5.554;2022-11-25T05:51:25;7.70;99.90
37274;DHT22;23161;51.250;5.554;2022-11-25T05:53:53;7.70;99.90
37274;DHT22;23161;51.250;5.554;2022-11-25T05:56:21;7.70;99.90
37274;DHT22;23161;51.250;5.554;2022-11-25T05:58:50;7.60;99.90
37274;DHT22;23161;51.250;5.554;2022-11-25T06:01:16;7.50;99.90
37274;DHT22;23161;51.250;5.554;2022-11-25T06:03:45;7.60;99.90
37274;DHT22;23161;51.250;5.554;2022-11-25T06:06:12;7.60;99.90
37274;DHT22;23161;51.250;5.554;2022-11-25T06:08:38;7.60;99.90
37274;DHT22;23161;51.250;5.554;2022-11-25T06:11:10;7.60;99.90
37274;DHT22;23161;51.250;5.554;2022-11-25T06:13:37;7.50;99.90
37274;DHT22;23161;51.250;5.554;2022-11-25T06:16:16;7.50;99.90
37274;DHT22;23161;51.250;5.554;2022-11-25T06:18:44;7.50;99.90
37274;DHT22;23161;51.250;5.554;2022-11-25T06:21:11;7.50;99.90
37274;DHT22;23161;51.250;5.554;2022-11-25T06:23:38;7.40;99.90
37274;DHT22;23161;51.250;5.554;2022-11-25T06:26:07;7.50;99.90
37274;DHT22;23161;51.250;5.554;2022-11-25T06:28:34;7.50;99.90
37274;DHT22;23161;51.250;5.554;2022-11-25T06:31:10;7.50;99.90
37274;DHT22;23161;51.250;5.554;2022-11-25T06:33:44;7.50;99.90
37274;DHT22;23161;51.250;5.554;2022-11-25T06:36:10;7.50;99.90
37274;DHT22;23161;51.250;5.554;2022-11-25T06:38:46;7.50;99.90
37274;DHT22;23161;51.250;5.554;2022-11-25T06:41:12;7.40;99.90
37274;DHT22;23161;51.250;5.554;2022-11-25T06:43:38;7.40;99.90
37274;DHT22;23161;51.250;5.554;2022-11-25T06:46:06;7.30;99.90
37274;DHT22;23161;51.250;5.554;2022-11-25T06:48:33;7.30;99.90
37274;DHT22;23161;51.250;5.554;2022-11-25T06:51:01;7.30;99.90
37274;DHT22;23161;51.250;5.554;2022-11-25T06:53:28;7.30;99.90
37274;DHT22;23161;51.250;5.554;2022-11-25T06:58:35;7.20;99.90
37274;DHT22;23161;51.250;5.554;2022-11-25T07:03:37;7.20;99.90
37274;DHT22;23161;51.250;5.554;2022-11-25T07:06:04;7.10;99.90
37274;DHT22;23161;51.250;5.554;2022-11-25T07:08:30;7.20;99.90
37274;DHT22;23161;51.250;5.554;2022-11-25T07:11:02;7.20;99.90
37274;DHT22;23161;51.250;5.554;2022-11-25T07:13:28;7.10;99.90
37274;DHT22;23161;51.250;5.554;2022-11-25T07:15:54;7.10;99.90
37274;DHT22;23161;51.250;5.554;2022-11-25T07:18:20;7.20;99.90
37274;DHT22;23161;51.250;5.554;2022-11-25T07:20:46;7.10;99.90
37274;DHT22;23161;51.250;5.554;2022-11-25T07:23:12;7.10;99.90
37274;DHT22;23161;51.250;5.554;2022-11-25T07:25:37;7.20;99.90
37274;DHT22;23161;51.250;5.554;2022-11-25T07:28:03;7.20;99.90
37274;DHT22;23161;51.250;5.554;2022-11-25T07:30:29;7.30;99.90
37274;DHT22;23161;51.250;5.554;2022-11-25T07:32:55;7.30;99.90
37274;DHT22;23161;51.250;5.554;2022-11-25T07:35:21;7.40;99.90
37274;DHT22;23161;51.250;5.554;2022-11-25T07:37:46;7.40;99.90
37274;DHT22;23161;51.250;5.554;2022-11-25T07:40:12;7.40;99.90
37274;DHT22;23161;51.250;5.554;2022-11-25T07:42:38;7.50;99.90
37274;DHT22;23161;51.250;5.554;2022-11-25T07:45:07;7.50;99.90
37274;DHT22;23161;51.250;5.554;2022-11-25T07:47:42;7.50;99.90
37274;DHT22;23161;51.250;5.554;2022-11-25T07:50:09;7.70;99.90
37274;DHT22;23161;51.250;5.554;2022-11-25T07:52:39;7.70;99.90
37274;DHT22;23161;51.250;5.554;2022-11-25T07:55:05;7.80;99.90
37274;DHT22;23161;51.250;5.554;2022-11-25T07:57:31;7.80;99.90
37274;DHT22;23161;51.250;5.554;2022-11-25T07:59:57;8.20;99.90
37274;DHT22;23161;51.250;5.554;2022-11-25T08:02:23;9.30;99.90
37274;DHT22;23161;51.250;5.554;2022-11-25T08:04:49;10.60;99.90
37274;DHT22;23161;51.250;5.554;2022-11-25T08:07:14;11.70;99.90
37274;DHT22;23161;51.250;5.554;2022-11-25T08:09:40;12.70;99.90
37274;DHT22;23161;51.250;5.554;2022-11-25T08:12:06;12.70;99.90
37274;DHT22;23161;51.250;5.554;2022-11-25T08:14:32;13.60;99.90
37274;DHT22;23161;51.250;5.554;2022-11-25T08:16:58;14.30;99.90
37274;DHT22;23161;51.250;5.554;2022-11-25T08:19:24;15.00;99.90
37274;DHT22;23161;51.250;5.554;2022-11-25T08:21:50;15.70;99.90
37274;DHT22;23161;51.250;5.554;2022-11-25T08:24:19;16.20;99.90
37274;DHT22;23161;51.250;5.554;2022-11-25T08:26:45;16.30;99.90
37274;DHT22;23161;51.250;5.554;2022-11-25T08:29:16;16.50;99.90
37274;DHT22;23161;51.250;5.554;2022-11-25T08:31:43;16.90;99.90
37274;DHT22;23161;51.250;5.554;2022-11-25T08:34:15;17.10;99.90
37274;DHT22;23161;51.250;5.554;2022-11-25T08:36:41;17.50;99.90
37274;DHT22;23161;51.250;5.554;2022-11-25T08:39:08;17.70;99.90
37274;DHT22;23161;51.250;5.554;2022-11-25T08:41:36;17.70;99.90
37274;DHT22;23161;51.250;5.554;2022-11-25T08:44:04;18.00;99.90
37274;DHT22;23161;51.250;5.554;2022-11-25T08:46:32;18.20;99.90
37274;DHT22;23161;51.250;5.554;2022-11-25T08:49:01;18.50;99.90
37274;DHT22;23161;51.250;5.554;2022-11-25T08:51:29;18.60;99.90
37274;DHT22;23161;51.250;5.554;2022-11-25T08:53:56;18.90;99.90
37274;DHT22;23161;51.250;5.554;2022-11-25T08:56:23;18.70;99.90
37274;DHT22;23161;51.250;5.554;2022-11-25T08:58:49;18.90;99.90
37274;DHT22;23161;51.250;5.554;2022-11-25T09:01:17;18.00;99.90
37274;DHT22;23161;51.250;5.554;2022-11-25T09:03:46;17.80;99.90
37274;DHT22;23161;51.250;5.554;2022-11-25T09:06:13;17.30;99.90
37274;DHT22;23161;51.250;5.554;2022-11-25T09:08:40;16.70;99.90
37274;DHT22;23161;51.250;5.554;2022-11-25T09:11:07;17.10;99.90
37274;DHT22;23161;51.250;5.554;2022-11-25T09:13:33;16.70;99.90
37274;DHT22;23161;51.250;5.554;2022-11-25T09:15:59;17.10;99.90
37274;DHT22;23161;51.250;5.554;2022-11-25T09:18:28;17.30;99.90
37274;DHT22;23161;51.250;5.554;2022-11-25T09:20:57;17.90;99.90
37274;DHT22;23161;51.250;5.554;2022-11-25T09:23:23;18.00;99.90
37274;DHT22;23161;51.250;5.554;2022-11-25T09:25:53;18.00;99.90
37274;DHT22;23161;51.250;5.554;2022-11-25T09:28:20;18.60;99.90
37274;DHT22;23161;51.250;5.554;2022-11-25T09:30:45;19.30;99.90
37274;DHT22;23161;51.250;5.554;2022-11-25T09:33:11;19.20;99.90
37274;DHT22;23161;51.250;5.554;2022-11-25T09:35:37;19.30;99.90
37274;DHT22;23161;51.250;5.554;2022-11-25T09:38:03;20.60;99.90
37274;DHT22;23161;51.250;5.554;2022-11-25T09:49:39;19.90;99.90
37274;DHT22;23161;51.250;5.554;2022-11-25T09:52:16;20.10;99.90
37274;DHT22;23161;51.250;5.554;2022-11-25T09:54:48;20.80;99.90
37274;DHT22;23161;51.250;5.554;2022-11-25T09:57:26;20.20;99.90
37274;DHT22;23161;51.250;5.554;2022-11-25T10:06:27;20.00;99.90
37274;DHT22;23161;51.250;5.554;2022-11-25T10:08:59;20.30;99.90
37274;DHT22;23161;51.250;5.554;2022-11-25T10:16:41;21.20;99.90
37274;DHT22;23161;51.250;5.554;2022-11-25T10:19:15;20.90;99.90
37274;DHT22;23161;51.250;5.554;2022-11-25T10:21:45;20.70;99.90
37274;DHT22;23161;51.250;5.554;2022-11-25T10:24:15;20.00;99.90
37274;DHT22;23161;51.250;5.554;2022-11-25T10:26:50;20.40;99.90
37274;DHT22;23161;51.250;5.554;2022-11-25T10:29:31;20.40;99.90
37274;DHT22;23161;51.250;5.554;2022-11-25T10:32:23;20.90;99.90
37274;DHT22;23161;51.250;5.554;2022-11-25T10:34:59;20.60;99.90
37274;DHT22;23161;51.250;5.554;2022-11-25T10:37:38;20.00;99.90
37274;DHT22;23161;51.250;5.554;2022-11-25T10:40:06;20.50;99.90
37274;DHT22;23161;51.250;5.554;2022-11-25T10:42:35;20.10;99.90
37274;DHT22;23161;51.250;5.554;2022-11-25T10:45:01;20.50;99.90
37274;DHT22;23161;51.250;5.554;2022-11-25T10:47:36;19.80;99.90
37274;DHT22;23161;51.250;5.554;2022-11-25T10:52:34;18.70;99.90
37274;DHT22;23161;51.250;5.554;2022-11-25T10:55:18;18.30;99.90
37274;DHT22;23161;51.250;5.554;2022-11-25T10:57:43;17.90;99.90
37274;DHT22;23161;51.250;5.554;2022-11-25T11:02:55;18.10;99.90
37274;DHT22;23161;51.250;5.554;2022-11-25T11:05:31;18.20;99.90
37274;DHT22;23161;51.250;5.554;2022-11-25T11:08:15;17.50;99.90
37274;DHT22;23161;51.250;5.554;2022-11-25T11:10:43;17.30;99.90
37274;DHT22;23161;51.250;5.554;2022-11-25T11:13:26;17.50;99.90
37274;DHT22;23161;51.250;5.554;2022-11-25T11:15:57;17.00;99.90
37274;DHT22;23161;51.250;5.554;2022-11-25T11:18:45;17.00;99.90
37274;DHT22;23161;51.250;5.554;2022-11-25T11:23:50;16.80;99.90
37274;DHT22;23161;51.250;5.554;2022-11-25T11:26:34;16.60;99.90
37274;DHT22;23161;51.250;5.554;2022-11-25T11:29:15;16.60;99.90
37274;DHT22;23161;51.250;5.554;2022-11-25T11:31:47;16.50;99.90
37274;DHT22;23161;51.250;5.554;2022-11-25T11:39:27;16.00;99.90
37274;DHT22;23161;51.250;5.554;2022-11-25T11:58:00;15.70;99.90
37274;DHT22;23161;51.250;5.554;2022-11-25T12:00:31;15.70;99.90
37274;DHT22;23161;51.250;5.554;2022-11-25T12:03:21;15.70;99.90
37274;DHT22;23161;51.250;5.554;2022-11-25T12:05:48;15.50;99.90
37274;DHT22;23161;51.250;5.554;2022-11-25T12:11:02;15.90;99.90
37274;DHT22;23161;51.250;5.554;2022-11-25T12:16:26;15.70;99.90
37274;DHT22;23161;51.250;5.554;2022-11-25T12:19:41;15.70;99.90
37274;DHT22;23161;51.250;5.554;2022-11-25T12:24:21;15.90;99.90
37274;DHT22;23161;51.250;5.554;2022-11-25T12:29:43;15.90;99.90
37274;DHT22;23161;51.250;5.554;2022-11-25T12:45:41;14.90;99.90
37274;DHT22;23161;51.250;5.554;2022-11-25T12:48:10;14.70;99.90
37274;DHT22;23161;51.250;5.554;2022-11-25T12:53:41;14.50;99.90
37274;DHT22;23161;51.250;5.554;2022-11-25T12:56:23;14.50;99.90
37274;DHT22;23161;51.250;5.554;2022-11-25T12:58:59;14.60;99.90
37274;DHT22;23161;51.250;5.554;2022-11-25T13:01:52;14.30;99.90
37274;DHT22;23161;51.250;5.554;2022-11-25T13:07:26;14.30;99.90
37274;DHT22;23161;51.250;5.554;2022-11-25T13:13:05;14.20;99.90
37274;DHT22;23161;51.250;5.554;2022-11-25T13:15:43;14.10;99.90
37274;DHT22;23161;51.250;5.554;2022-11-25T13:18:16;14.00;99.90
37274;DHT22;23161;51.250;5.554;2022-11-25T13:20:47;13.90;99.90
37274;DHT22;23161;51.250;5.554;2022-11-25T13:25:44;13.90;99.90
37274;DHT22;23161;51.250;5.554;2022-11-25T13:28:35;13.80;99.90
37274;DHT22;23161;51.250;5.554;2022-11-25T13:31:22;13.70;99.90
37274;DHT22;23161;51.250;5.554;2022-11-25T13:36:19;13.60;99.90
37274;DHT22;23161;51.250;5.554;2022-11-25T13:46:45;13.60;99.90
37274;DHT22;23161;51.250;5.554;2022-11-25T13:54:54;13.40;99.90
37274;DHT22;23161;51.250;5.554;2022-11-25T13:57:27;13.40;99.90
37274;DHT22;23161;51.250;5.554;2022-11-25T14:00:40;13.30;99.90
37274;DHT22;23161;51.250;5.554;2022-11-25T14:02:53;13.30;99.90
37274;DHT22;23161;51.250;5.554;2022-11-25T14:05:47;13.20;99.90
37274;DHT22;23161;51.250;5.554;2022-11-25T14:21:50;12.90;99.90
37274;DHT22;23161;51.250;5.554;2022-11-25T14:26:59;12.70;99.90
37274;DHT22;23161;51.250;5.554;2022-11-25T14:29:35;12.70;99.90
37274;DHT22;23161;51.250;5.554;2022-11-25T14:32:22;12.60;99.90
37274;DHT22;23161;51.250;5.554;2022-11-25T14:35:14;12.60;99.90
37274;DHT22;23161;51.250;5.554;2022-11-25T14:37:51;12.50;99.90
37274;DHT22;23161;51.250;5.554;2022-11-25T14:40:27;12.50;99.90
37274;DHT22;23161;51.250;5.554;2022-11-25T14:43:01;12.50;99.90
37274;DHT22;23161;51.250;5.554;2022-11-25T14:45:31;12.50;99.90
37274;DHT22;23161;51.250;5.554;2022-11-25T14:48:20;12.50;99.90
37274;DHT22;23161;51.250;5.554;2022-11-25T14:51:08;12.40;99.90
37274;DHT22;23161;51.250;5.554;2022-11-25T14:53:46;12.40;99.90
37274;DHT22;23161;51.250;5.554;2022-11-25T14:56:13;12.30;99.90
37274;DHT22;23161;51.250;5.554;2022-11-25T14:58:50;12.30;99.90
37274;DHT22;23161;51.250;5.554;2022-11-25T15:01:22;12.20;99.90
37274;DHT22;23161;51.250;5.554;2022-11-25T15:03:50;12.20;99.90
37274;DHT22;23161;51.250;5.554;2022-11-25T15:06:16;12.20;99.90
37274;DHT22;23161;51.250;5.554;2022-11-25T15:08:53;12.10;99.90
37274;DHT22;23161;51.250;5.554;2022-11-25T15:11:23;12.10;99.90
37274;DHT22;23161;51.250;5.554;2022-11-25T15:17:36;12.00;99.90
37274;DHT22;23161;51.250;5.554;2022-11-25T15:20:11;11.90;99.90
37274;DHT22;23161;51.250;5.554;2022-11-25T15:22:37;11.80;99.90
37274;DHT22;23161;51.250;5.554;2022-11-25T15:25:11;11.70;99.90
37274;DHT22;23161;51.250;5.554;2022-11-25T15:27:44;11.60;99.90
37274;DHT22;23161;51.250;5.554;2022-11-25T15:30:36;11.60;99.90
37274;DHT22;23161;51.250;5.554;2022-11-25T15:33:02;11.50;99.90
37274;DHT22;23161;51.250;5.554;2022-11-25T15:35:28;11.50;99.90
37274;DHT22;23161;51.250;5.554;2022-11-25T15:37:54;11.50;99.90
37274;DHT22;23161;51.250;5.554;2022-11-25T15:40:31;11.40;99.90
37274;DHT22;23161;51.250;5.554;2022-11-25T15:42:59;11.30;99.90
37274;DHT22;23161;51.250;5.554;2022-11-25T15:45:31;11.20;99.90
37274;DHT22;23161;51.250;5.554;2022-11-25T15:47:59;11.00;99.90
37274;DHT22;23161;51.250;5.554;2022-11-25T15:50:25;10.90;99.90
37274;DHT22;23161;51.250;5.554;2022-11-25T15:52:56;10.90;99.90
37274;DHT22;23161;51.250;5.554;2022-11-25T15:58:18;10.90;99.90
37274;DHT22;23161;51.250;5.554;2022-11-25T16:01:06;10.90;99.90
37274;DHT22;23161;51.250;5.554;2022-11-25T16:03:33;10.90;99.90
37274;DHT22;23161;51.250;5.554;2022-11-25T16:06:01;10.80;99.90
37274;DHT22;23161;51.250;5.554;2022-11-25T16:10:57;10.80;99.90
37274;DHT22;23161;51.250;5.554;2022-11-25T16:13:30;10.70;99.90
37274;DHT22;23161;51.250;5.554;2022-11-25T16:21:25;10.50;99.90
37274;DHT22;23161;51.250;5.554;2022-11-25T16:24:10;10.60;99.90
37274;DHT22;23161;51.250;5.554;2022-11-25T16:29:37;10.60;99.90
37274;DHT22;23161;51.250;5.554;2022-11-25T16:32:16;10.60;99.90
37274;DHT22;23161;51.250;5.554;2022-11-25T16:34:43;10.70;99.90
37274;DHT22;23161;51.250;5.554;2022-11-25T16:37:09;10.70;99.90
37274;DHT22;23161;51.250;5.554;2022-11-25T16:39:36;10.60;99.90
37274;DHT22;23161;51.250;5.554;2022-11-25T16:42:03;10.50;99.90
37274;DHT22;23161;51.250;5.554;2022-11-25T16:44:31;10.50;99.90
37274;DHT22;23161;51.250;5.554;2022-11-25T16:46:58;10.40;99.90
37274;DHT22;23161;51.250;5.554;2022-11-25T16:49:24;10.20;99.90
37274;DHT22;23161;51.250;5.554;2022-11-25T16:51:51;10.10;99.90
37274;DHT22;23161;51.250;5.554;2022-11-25T16:54:21;10.10;99.90
37274;DHT22;23161;51.250;5.554;2022-11-25T16:56:52;10.20;99.90
37274;DHT22;23161;51.250;5.554;2022-11-25T16:59:28;10.20;99.90
37274;DHT22;23161;51.250;5.554;2022-11-25T17:01:55;10.20;99.90
37274;DHT22;23161;51.250;5.554;2022-11-25T17:04:22;10.10;99.90
37274;DHT22;23161;51.250;5.554;2022-11-25T17:06:48;10.10;99.90
37274;DHT22;23161;51.250;5.554;2022-11-25T17:09:13;10.00;99.90
37274;DHT22;23161;51.250;5.554;2022-11-25T17:11:50;10.00;99.90
37274;DHT22;23161;51.250;5.554;2022-11-25T17:14:31;10.00;99.90
37274;DHT22;23161;51.250;5.554;2022-11-25T17:17:01;10.00;99.90
37274;DHT22;23161;51.250;5.554;2022-11-25T17:19:27;9.90;99.90
37274;DHT22;23161;51.250;5.554;2022-11-25T17:21:53;9.80;99.90
37274;DHT22;23161;51.250;5.554;2022-11-25T17:24:21;9.80;99.90
37274;DHT22;23161;51.250;5.554;2022-11-25T17:26:55;9.80;99.90
37274;DHT22;23161;51.250;5.554;2022-11-25T17:29:31;9.70;99.90
37274;DHT22;23161;51.250;5.554;2022-11-25T17:31:58;9.60;99.90
37274;DHT22;23161;51.250;5.554;2022-11-25T17:34:24;9.60;99.90
37274;DHT22;23161;51.250;5.554;2022-11-25T17:36:50;9.60;99.90
37274;DHT22;23161;51.250;5.554;2022-11-25T17:39:16;9.60;99.90
37274;DHT22;23161;51.250;5.554;2022-11-25T17:41:46;9.50;99.90
37274;DHT22;23161;51.250;5.554;2022-11-25T17:46:48;9.50;99.90
37274;DHT22;23161;51.250;5.554;2022-11-25T17:49:16;9.60;99.90
37274;DHT22;23161;51.250;5.554;2022-11-25T17:51:43;9.60;99.90
37274;DHT22;23161;51.250;5.554;2022-11-25T17:54:09;9.60;99.90
37274;DHT22;23161;51.250;5.554;2022-11-25T17:56:36;9.60;99.90
37274;DHT22;23161;51.250;5.554;2022-11-25T17:59:09;9.50;99.90
37274;DHT22;23161;51.250;5.554;2022-11-25T18:01:35;9.30;99.90
37274;DHT22;23161;51.250;5.554;2022-11-25T18:04:21;9.20;99.90
37274;DHT22;23161;51.250;5.554;2022-11-25T18:06:47;9.10;99.90
37274;DHT22;23161;51.250;5.554;2022-11-25T18:09:13;9.00;99.90
37274;DHT22;23161;51.250;5.554;2022-11-25T18:11:42;8.90;99.90
37274;DHT22;23161;51.250;5.554;2022-11-25T18:14:29;8.80;99.90
37274;DHT22;23161;51.250;5.554;2022-11-25T18:17:01;8.80;99.90
37274;DHT22;23161;51.250;5.554;2022-11-25T18:19:28;8.70;99.90
37274;DHT22;23161;51.250;5.554;2022-11-25T18:22:11;8.70;99.90
37274;DHT22;23161;51.250;5.554;2022-11-25T18:24:39;8.60;99.90
37274;DHT22;23161;51.250;5.554;2022-11-25T18:27:06;8.50;99.90